createdAt,value
2022-08-07T00:00:24.032Z,101870.19
2022-08-07T00:02:51.224Z,101857.06
2022-08-07T00:05:20.689Z,101854.50
2022-08-07T00:07:50.703Z,101862.41
2022-08-07T00:10:31.052Z,101864.28
2022-08-07T00:13:02.217Z,101858.91
2022-08-07T00:15:36.006Z,101858.94
2022-08-07T00:18:05.559Z,101848.53
2022-08-07T00:20:34.253Z,101846.22
2022-08-07T00:23:01.083Z,101851.16
2022-08-07T00:25:27.629Z,101853.03
2022-08-07T00:28:04.207Z,101847.78
2022-08-07T00:30:31.625Z,101843.47
2022-08-07T00:33:00.447Z,101842.69
2022-08-07T00:35:29.706Z,101842.00
2022-08-07T00:37:57.072Z,101839.34
2022-08-07T00:40:39.752Z,101840.19
2022-08-07T00:43:14.035Z,101833.22
2022-08-07T00:45:57.977Z,101830.75
2022-08-07T00:48:25.079Z,101831.75
2022-08-07T00:50:59.349Z,101835.97
2022-08-07T00:53:26.992Z,101830.72
2022-08-07T00:56:07.388Z,101823.81
2022-08-07T00:58:47.339Z,101823.88
2022-08-07T01:01:17.605Z,101817.06
2022-08-07T01:03:56.206Z,101820.66
2022-08-07T01:06:30.221Z,101820.63
2022-08-07T01:08:59.431Z,101819.66
2022-08-07T01:12:28.076Z,101811.84
2022-08-07T01:14:28.746Z,101810.06
2022-08-07T01:16:56.982Z,101817.13
2022-08-07T01:19:25.089Z,101813.00
2022-08-07T01:21:53.411Z,101812.25
2022-08-07T01:24:22.894Z,101805.19
2022-08-07T01:26:51.668Z,101812.16
2022-08-07T01:29:19.630Z,101803.38
2022-08-07T01:31:48.401Z,101806.78
2022-08-07T01:34:17.772Z,101809.34
2022-08-07T01:36:51.399Z,101817.31
2022-08-07T01:39:26.857Z,101805.06
2022-08-07T01:42:38.653Z,101806.03
2022-08-07T01:44:53.994Z,101800.16
2022-08-07T01:48:18.996Z,101802.88
2022-08-07T01:50:08.602Z,101804.63
2022-08-07T01:52:39.024Z,101805.47
2022-08-07T01:55:22.019Z,101802.09
2022-08-07T01:58:06.136Z,101801.22
2022-08-07T02:00:49.148Z,101800.31
2022-08-07T02:03:21.855Z,101799.41
2022-08-07T02:06:04.839Z,101793.19
2022-08-07T02:08:54.176Z,101801.22
2022-08-07T02:11:30.834Z,101796.06
2022-08-07T02:14:09.830Z,101789.84
2022-08-07T02:16:42.715Z,101797.78
2022-08-07T02:20:07.771Z,101788.97
2022-08-07T02:22:01.724Z,101794.22
2022-08-07T02:24:30.254Z,101790.69
2022-08-07T02:27:00.107Z,101792.50
2022-08-07T02:29:28.992Z,101791.63
2022-08-07T02:31:59.149Z,101777.56
2022-08-07T02:34:27.287Z,101787.22
2022-08-07T02:36:56.301Z,101789.91
2022-08-07T02:39:43.145Z,101789.06
2022-08-07T02:42:16.701Z,101788.19
2022-08-07T02:44:46.482Z,101785.56
2022-08-07T02:47:19.502Z,101781.13
2022-08-07T02:49:57.930Z,101784.59
2022-08-07T02:52:32.625Z,101782.84
2022-08-07T02:55:27.554Z,101784.56
2022-08-07T02:57:59.029Z,101776.66
2022-08-07T03:00:28.036Z,101775.81
2022-08-07T03:02:58.388Z,101777.59
2022-08-07T03:05:25.228Z,101782.84
2022-08-07T03:08:07.049Z,101780.19
2022-08-07T03:10:35.919Z,101769.63
2022-08-07T03:13:15.468Z,101778.41
2022-08-07T03:15:47.737Z,101787.19
2022-08-07T03:18:24.465Z,101776.66
2022-08-07T03:21:02.397Z,101778.38
2022-08-07T03:23:34.173Z,101785.41
2022-08-07T03:26:23.531Z,101787.13
2022-08-07T03:28:51.587Z,101788.09
2022-08-07T03:31:24.459Z,101788.28
2022-08-07T03:33:56.214Z,101781.25
2022-08-07T03:36:25.901Z,101785.69
2022-08-07T03:38:57.853Z,101786.56
2022-08-07T03:41:42.583Z,101774.31
2022-08-07T03:44:15.246Z,101774.34
2022-08-07T03:47:13.751Z,101780.56
2022-08-07T03:49:30.436Z,101777.19
2022-08-07T03:52:01.337Z,101778.88
2022-08-07T03:54:36.096Z,101777.19
2022-08-07T03:58:34.296Z,101778.09
2022-08-07T04:00:04.465Z,101780.00
2022-08-07T04:02:31.159Z,101777.38
2022-08-07T04:04:58.423Z,101780.03
2022-08-07T04:07:25.641Z,101781.69
2022-08-07T04:10:04.616Z,101772.88
2022-08-07T04:12:32.943Z,101778.00
2022-08-07T04:15:02.337Z,101777.13
2022-08-07T04:18:11.276Z,101774.50
2022-08-07T04:20:19.524Z,101779.69
2022-08-07T04:22:53.418Z,101776.28
2022-08-07T04:25:29.126Z,101770.16
2022-08-07T04:27:59.238Z,101777.19
2022-08-07T04:30:39.587Z,101778.94
2022-08-07T04:33:13.840Z,101787.72
2022-08-07T04:35:44.656Z,101789.59
2022-08-07T04:38:17.274Z,101787.75
2022-08-07T04:40:52.429Z,101790.34
2022-08-07T04:44:10.648Z,101792.06
2022-08-07T04:46:25.824Z,101795.47
2022-08-07T04:49:18.440Z,101808.53
2022-08-07T04:52:08.460Z,101799.00
2022-08-07T04:54:51.332Z,101792.94
2022-08-07T04:58:14.158Z,101798.13
2022-08-07T05:00:53.684Z,101790.13
2022-08-07T05:03:59.696Z,101793.53
2022-08-07T05:06:20.359Z,101789.09
2022-08-07T05:09:01.154Z,101793.47
2022-08-07T05:11:57.937Z,101785.50
2022-08-07T05:14:55.283Z,101791.63
2022-08-07T05:17:52.156Z,101799.59
2022-08-07T05:20:09.827Z,101802.19
2022-08-07T05:22:39.035Z,101803.84
2022-08-07T05:25:08.735Z,101808.22
2022-08-07T05:28:16.957Z,101806.47
2022-08-07T05:30:32.359Z,101806.47
2022-08-07T05:33:02.588Z,101803.84
2022-08-07T05:35:33.533Z,101806.41
2022-08-07T05:38:08.823Z,101810.75
2022-08-07T05:40:42.778Z,101813.31
2022-08-07T05:43:19.268Z,101817.59
2022-08-07T05:46:06.031Z,101819.38
2022-08-07T05:48:32.767Z,101832.47
2022-08-07T05:51:03.387Z,101829.78
2022-08-07T05:54:09.727Z,101831.53
2022-08-07T05:56:19.892Z,101826.16
2022-08-07T05:58:58.401Z,101829.63
2022-08-07T06:01:27.468Z,101836.63
2022-08-07T06:04:04.287Z,101833.03
2022-08-07T06:06:34.191Z,101830.38
2022-08-07T06:09:04.580Z,101828.50
2022-08-07T06:11:33.866Z,101840.75
2022-08-07T06:14:12.924Z,101840.66
2022-08-07T06:16:50.784Z,101831.84
2022-08-07T06:19:47.508Z,101837.94
2022-08-07T06:22:23.166Z,101838.75
2022-08-07T06:25:00.920Z,101839.56
2022-08-07T06:28:00.153Z,101836.00
2022-08-07T06:30:32.081Z,101835.06
2022-08-07T06:33:02.174Z,101828.84
2022-08-07T06:35:30.653Z,101837.56
2022-08-07T06:38:08.154Z,101827.84
2022-08-07T06:40:46.233Z,101832.19
2022-08-07T06:43:21.608Z,101840.91
2022-08-07T06:45:49.624Z,101839.09
2022-08-07T06:48:24.633Z,101827.59
2022-08-07T06:51:08.060Z,101830.19
2022-08-07T06:55:29.550Z,101820.50
2022-08-07T06:56:52.837Z,101822.09
2022-08-07T07:00:12.468Z,101820.19
2022-08-07T07:02:48.924Z,101819.25
2022-08-07T07:06:03.199Z,101818.25
2022-08-07T07:08:06.639Z,101813.84
2022-08-07T07:10:37.970Z,101816.50
2022-08-07T07:13:56.414Z,101822.44
2022-08-07T07:16:18.009Z,101823.16
2022-08-07T07:18:54.357Z,101823.59
2022-08-07T07:22:05.490Z,101813.56
2022-08-07T07:24:18.732Z,101811.78
2022-08-07T07:26:49.640Z,101811.66
2022-08-07T07:29:40.082Z,101819.50
2022-08-07T07:32:14.600Z,101811.63
2022-08-07T07:34:46.066Z,101818.69
2022-08-07T07:37:45.115Z,101830.03
2022-08-07T07:40:14.925Z,101815.59
2022-08-07T07:42:51.403Z,101820.03
2022-08-07T07:46:37.731Z,101819.19
2022-08-07T07:48:35.345Z,101814.09
2022-08-07T07:51:07.717Z,101807.06
2022-08-07T07:53:51.301Z,101806.84
2022-08-07T07:56:30.145Z,101810.22
2022-08-07T07:59:01.678Z,101805.72
2022-08-07T08:02:03.992Z,101805.53
2022-08-07T08:04:25.670Z,101802.59
2022-08-07T08:06:53.811Z,101800.22
2022-08-07T08:09:29.606Z,101795.63
2022-08-07T08:12:02.073Z,101797.34
2022-08-07T08:14:34.174Z,101800.84
2022-08-07T08:17:55.953Z,101790.53
2022-08-07T08:20:19.531Z,101789.34
2022-08-07T08:23:12.542Z,101793.28
2022-08-07T08:26:07.038Z,101784.91
2022-08-07T08:28:39.218Z,101783.28
2022-08-07T08:31:22.885Z,101781.56
2022-08-07T08:34:05.662Z,101777.06
2022-08-07T08:36:36.418Z,101776.16
2022-08-07T08:39:08.785Z,101770.16
2022-08-07T08:41:59.093Z,101774.31
2022-08-07T08:44:44.759Z,101772.56
2022-08-07T08:47:52.129Z,101773.13
2022-08-07T08:50:35.312Z,101770.31
2022-08-07T08:53:19.290Z,101770.47
2022-08-07T08:56:04.487Z,101774.25
2022-08-07T08:58:47.547Z,101772.50
2022-08-07T09:01:40.185Z,101770.66
2022-08-07T09:04:25.725Z,101758.69
2022-08-07T09:07:11.557Z,101765.81
2022-08-07T09:09:56.981Z,101760.22
2022-08-07T09:12:37.843Z,101750.13
2022-08-07T09:16:21.760Z,101750.63
2022-08-07T09:18:16.781Z,101749.06
2022-08-07T09:21:57.705Z,101750.50
2022-08-07T09:24:54.980Z,101746.31
2022-08-07T09:27:59.870Z,101749.59
2022-08-07T09:30:34.803Z,101746.19
2022-08-07T09:33:52.614Z,101740.78
2022-08-07T09:36:35.836Z,101741.28
2022-08-07T09:39:54.833Z,101744.50
2022-08-07T09:42:51.407Z,101743.28
2022-08-07T09:47:50.136Z,101748.81
2022-08-07T09:49:59.360Z,101747.69
2022-08-07T09:52:10.166Z,101737.72
2022-08-07T09:54:46.830Z,101729.41
2022-08-07T09:57:25.448Z,101728.63
2022-08-07T10:00:15.014Z,101727.31
2022-08-07T10:04:03.862Z,101723.94
2022-08-07T10:06:24.461Z,101720.25
2022-08-07T10:09:17.280Z,101729.97
2022-08-07T10:12:52.615Z,101729.91
2022-08-07T10:15:26.281Z,101718.53
2022-08-07T10:18:31.451Z,101709.72
2022-08-07T10:22:14.634Z,101710.56
2022-08-07T10:24:18.421Z,101708.41
2022-08-07T10:26:56.746Z,101712.63
2022-08-07T10:29:35.384Z,101717.50
2022-08-07T10:32:59.573Z,101706.13
2022-08-07T10:35:55.425Z,101705.09
2022-08-07T10:38:42.366Z,101697.06
2022-08-07T10:41:51.696Z,101699.13
2022-08-07T10:44:33.801Z,101690.56
2022-08-07T10:47:26.830Z,101695.00
2022-08-07T10:50:15.347Z,101683.31
2022-08-07T10:53:21.700Z,101679.03
2022-08-07T10:56:03.453Z,101680.56
2022-08-07T10:58:36.650Z,101669.66
2022-08-07T11:01:35.856Z,101665.81
2022-08-07T11:04:37.946Z,101662.47
2022-08-07T11:07:14.839Z,101664.22
2022-08-07T11:10:07.726Z,101656.34
2022-08-07T11:12:43.295Z,101648.09
2022-08-07T11:15:31.647Z,101647.88
2022-08-07T11:18:04.539Z,101651.16
2022-08-07T11:20:42.105Z,101649.97
2022-08-07T11:23:36.603Z,101645.31
2022-08-07T11:26:21.244Z,101636.72
2022-08-07T11:28:58.842Z,101630.16
2022-08-07T11:31:45.127Z,101632.69
2022-08-07T11:34:31.184Z,101631.03
2022-08-07T11:37:24.207Z,101629.47
2022-08-07T11:40:19.288Z,101627.63
2022-08-07T11:43:08.365Z,101615.25
2022-08-07T11:45:40.737Z,101624.56
2022-08-07T11:48:40.673Z,101621.53
2022-08-07T11:51:41.434Z,101624.69
2022-08-07T11:54:30.346Z,101625.63
2022-08-07T11:57:57.779Z,101622.25
2022-08-07T12:00:27.571Z,101615.94
2022-08-07T12:03:41.783Z,101611.97
2022-08-07T12:06:50.882Z,101610.66
2022-08-07T12:09:31.626Z,101609.34
2022-08-07T12:12:11.655Z,101617.69
2022-08-07T12:15:03.474Z,101617.09
2022-08-07T12:17:58.409Z,101617.56
2022-08-07T12:20:52.074Z,101625.13
2022-08-07T12:24:07.651Z,101617.53
2022-08-07T12:26:46.584Z,101622.16
2022-08-07T12:29:43.705Z,101612.09
2022-08-07T12:32:37.978Z,101614.84
2022-08-07T12:35:10.389Z,101604.28
2022-08-07T12:38:09.853Z,101611.09
2022-08-07T12:40:48.865Z,101592.63
2022-08-07T12:44:03.554Z,101594.69
2022-08-07T12:46:34.613Z,101596.00
2022-08-07T12:49:25.639Z,101591.47
2022-08-07T12:52:17.105Z,101581.13
2022-08-07T12:55:03.743Z,101588.78
2022-08-07T12:57:38.904Z,101580.69
2022-08-07T13:00:31.257Z,101581.38
2022-08-07T13:04:02.334Z,101582.91
2022-08-07T13:07:00.265Z,101580.56
2022-08-07T13:10:19.400Z,101570.56
2022-08-07T13:13:09.066Z,101572.97
2022-08-07T13:15:50.913Z,101576.78
2022-08-07T13:18:34.169Z,101577.41
2022-08-07T13:21:13.001Z,101573.63
2022-08-07T13:24:01.275Z,101574.59
2022-08-07T13:27:08.261Z,101577.31
2022-08-07T13:29:49.371Z,101569.50
2022-08-07T13:32:37.423Z,101557.91
2022-08-07T13:36:00.528Z,101563.06
2022-08-07T13:38:24.451Z,101552.91
2022-08-07T13:41:41.320Z,101550.25
2022-08-07T13:44:10.318Z,101550.47
2022-08-07T13:46:49.570Z,101545.25
2022-08-07T13:50:33.289Z,101542.94
2022-08-07T13:52:22.893Z,101543.28
2022-08-07T13:54:57.165Z,101536.38
2022-08-07T13:57:32.165Z,101537.69
2022-08-07T14:00:08.295Z,101539.28
2022-08-07T14:02:56.550Z,101532.81
2022-08-07T14:05:24.927Z,101535.50
2022-08-07T14:08:06.954Z,101525.16
2022-08-07T14:10:42.039Z,101524.38
2022-08-07T14:13:16.338Z,101531.56
2022-08-07T14:15:50.861Z,101532.50
2022-08-07T14:18:29.322Z,101533.00
2022-08-07T14:22:03.988Z,101525.84
2022-08-07T14:24:33.807Z,101524.34
2022-08-07T14:28:09.144Z,101526.22
2022-08-07T14:30:04.985Z,101514.44
2022-08-07T14:32:41.020Z,101516.47
2022-08-07T14:35:11.300Z,101509.19
2022-08-07T14:37:40.025Z,101508.44
2022-08-07T14:40:18.099Z,101505.75
2022-08-07T14:43:55.622Z,101502.31
2022-08-07T14:46:03.981Z,101505.88
2022-08-07T14:48:33.992Z,101500.41
2022-08-07T14:51:05.181Z,101507.59
2022-08-07T14:56:29.971Z,101502.31
2022-08-07T14:59:02.091Z,101491.78
2022-08-07T15:04:25.192Z,101493.16
2022-08-07T15:06:52.579Z,101493.16
2022-08-07T15:09:59.718Z,101500.41
2022-08-07T15:12:32.173Z,101495.72
2022-08-07T15:15:07.844Z,101502.50
2022-08-07T15:17:55.460Z,101495.44
2022-08-07T15:23:20.624Z,101495.22
2022-08-07T15:25:53.734Z,101490.09
2022-08-07T15:31:12.980Z,101490.09
2022-08-07T15:34:01.414Z,101484.63
2022-08-07T15:37:03.110Z,101487.50
2022-08-07T15:39:16.266Z,101483.97
2022-08-07T15:42:45.245Z,101487.03
2022-08-07T15:44:51.910Z,101481.00
2022-08-07T15:47:21.753Z,101469.59
2022-08-07T15:50:37.540Z,101465.84
2022-08-07T15:53:51.851Z,101465.84
2022-08-07T15:56:19.698Z,101470.06
2022-08-07T15:58:58.828Z,101466.63
2022-08-07T16:01:40.339Z,101468.03
2022-08-07T16:04:14.849Z,101468.81
2022-08-07T16:07:00.556Z,101464.00
2022-08-07T16:09:51.864Z,101465.94
2022-08-07T16:13:01.018Z,101456.94
2022-08-07T16:16:42.760Z,101464.34
2022-08-07T16:19:42.273Z,101454.22
2022-08-07T16:22:55.240Z,101456.69
2022-08-07T16:25:52.729Z,101455.94
2022-08-07T16:30:08.642Z,101452.06
2022-08-07T16:32:01.450Z,101458.28
2022-08-07T16:34:48.835Z,101460.72
2022-08-07T16:38:05.997Z,101453.00
2022-08-07T16:40:38.034Z,101450.75
2022-08-07T16:44:04.285Z,101444.88
2022-08-07T16:47:38.613Z,101454.84
2022-08-07T16:50:39.322Z,101447.47
2022-08-07T16:54:01.644Z,101446.09
2022-08-07T16:56:32.054Z,101447.91
2022-08-07T16:59:46.039Z,101449.53
2022-08-07T17:02:53.486Z,101444.63
2022-08-07T17:06:01.732Z,101444.47
2022-08-07T17:09:09.442Z,101454.00
2022-08-07T17:12:04.090Z,101449.50
2022-08-07T17:14:45.013Z,101441.81
2022-08-07T17:17:46.734Z,101434.59
2022-08-07T17:20:35.586Z,101440.97
2022-08-07T17:23:22.353Z,101441.94
2022-08-07T17:26:23.324Z,101451.03
2022-08-07T17:28:57.256Z,101450.00
2022-08-07T17:31:44.384Z,101451.97
2022-08-07T17:34:40.995Z,101444.25
2022-08-07T17:38:06.572Z,101454.50
2022-08-07T17:40:31.879Z,101448.22
2022-08-07T17:44:01.419Z,101456.75
2022-08-07T17:46:34.523Z,101448.97
2022-08-07T17:49:23.871Z,101444.91
2022-08-07T17:52:01.082Z,101451.41
2022-08-07T17:54:57.808Z,101448.03
2022-08-07T17:57:59.276Z,101456.25
2022-08-07T18:00:34.280Z,101454.13
2022-08-07T18:04:04.215Z,101449.66
2022-08-07T18:06:36.850Z,101458.03
2022-08-07T18:09:06.289Z,101458.34
2022-08-07T18:12:12.071Z,101462.03
2022-08-07T18:15:02.762Z,101455.69
2022-08-07T18:18:46.719Z,101464.56
2022-08-07T18:21:38.297Z,101473.31
2022-08-07T18:24:33.938Z,101470.84
2022-08-07T18:27:38.695Z,101474.28
2022-08-07T18:30:32.549Z,101472.31
2022-08-07T18:33:17.740Z,101483.09
2022-08-07T18:35:53.714Z,101483.84
2022-08-07T18:38:56.014Z,101484.47
2022-08-07T18:42:05.055Z,101488.84
2022-08-07T18:45:39.881Z,101484.88
2022-08-07T18:48:52.141Z,101496.72
2022-08-07T18:51:17.492Z,101490.78
2022-08-07T18:54:27.942Z,101496.03
2022-08-07T18:57:30.306Z,101503.81
2022-08-07T19:00:33.046Z,101504.69
2022-08-07T19:02:58.850Z,101500.72
2022-08-07T19:06:01.875Z,101505.59
2022-08-07T19:08:22.197Z,101499.91
2022-08-07T19:10:55.364Z,101510.91
2022-08-07T19:13:28.491Z,101506.75
2022-08-07T19:17:05.513Z,101519.72
2022-08-07T19:19:32.616Z,101511.25
2022-08-07T19:22:08.223Z,101523.63
2022-08-07T19:24:46.181Z,101522.09
2022-08-07T19:28:56.941Z,101524.50
2022-08-07T19:31:06.373Z,101529.53
2022-08-07T19:33:12.905Z,101536.66
2022-08-07T19:35:43.851Z,101534.28
2022-08-07T19:38:16.832Z,101546.13
2022-08-07T19:40:50.075Z,101553.59
2022-08-07T19:43:49.135Z,101552.63
2022-08-07T19:46:12.226Z,101553.41
2022-08-07T19:48:54.171Z,101555.13
2022-08-07T19:51:52.680Z,101551.59
2022-08-07T19:54:32.757Z,101554.34
2022-08-07T19:58:02.616Z,101551.03
2022-08-07T19:59:55.128Z,101563.84
2022-08-07T20:02:52.283Z,101555.53
2022-08-07T20:05:25.319Z,101563.59
2022-08-07T20:07:59.638Z,101566.25
2022-08-07T20:10:35.780Z,101554.97
2022-08-07T20:13:31.930Z,101559.59
2022-08-07T20:16:01.789Z,101564.34
2022-08-07T20:18:32.958Z,101564.69
2022-08-07T20:21:03.347Z,101562.34
2022-08-07T20:23:53.478Z,101568.97
2022-08-07T20:26:32.139Z,101566.66
2022-08-07T20:29:16.955Z,101567.81
2022-08-07T20:31:59.857Z,101568.16
2022-08-07T20:34:49.247Z,101563.03
2022-08-07T20:37:21.843Z,101563.78
2022-08-07T20:40:03.185Z,101562.78
2022-08-07T20:42:33.549Z,101564.72
2022-08-07T20:45:01.331Z,101568.25
2022-08-07T20:47:56.610Z,101565.16
2022-08-07T20:50:20.609Z,101572.72
2022-08-07T20:52:51.409Z,101572.78
2022-08-07T20:55:23.558Z,101575.53
2022-08-07T20:58:02.526Z,101572.41
2022-08-07T21:00:44.397Z,101573.38
2022-08-07T21:03:16.277Z,101578.78
2022-08-07T21:06:21.653Z,101580.84
2022-08-07T21:09:15.156Z,101586.50
2022-08-07T21:11:50.029Z,101586.88
2022-08-07T21:14:33.108Z,101588.06
2022-08-07T21:18:09.611Z,101592.53
2022-08-07T21:20:04.359Z,101584.03
2022-08-07T21:22:38.954Z,101587.56
2022-08-07T21:25:12.256Z,101588.81
2022-08-07T21:28:01.899Z,101583.91
2022-08-07T21:30:45.309Z,101593.00
2022-08-07T21:33:22.496Z,101589.97
2022-08-07T21:36:05.691Z,101590.72
2022-08-07T21:38:49.877Z,101591.53
2022-08-07T21:41:37.931Z,101586.72
2022-08-07T21:44:28.338Z,101593.97
2022-08-07T21:47:04.354Z,101596.56
2022-08-07T21:50:01.076Z,101598.59
2022-08-07T21:52:44.612Z,101593.41
2022-08-07T21:55:36.086Z,101601.44
2022-08-07T21:58:32.189Z,101605.47
2022-08-07T22:01:04.549Z,101614.28
2022-08-07T22:03:42.960Z,101606.78
2022-08-07T22:06:29.974Z,101611.03
2022-08-07T22:09:06.904Z,101616.09
2022-08-07T22:12:04.903Z,101610.19
2022-08-07T22:14:34.932Z,101614.00
2022-08-07T22:17:04.957Z,101612.16
2022-08-07T22:20:05.467Z,101621.13
2022-08-07T22:22:44.737Z,101616.31
2022-08-07T22:25:36.168Z,101615.34
2022-08-07T22:28:31.189Z,101613.13
2022-08-07T22:31:45.172Z,101610.41
2022-08-07T22:34:12.877Z,101615.94
2022-08-07T22:37:09.442Z,101612.41
2022-08-07T22:40:04.952Z,101609.81
2022-08-07T22:42:34.945Z,101619.50
2022-08-07T22:45:10.933Z,101614.13
2022-08-07T22:47:52.258Z,101615.41
2022-08-07T22:50:33.133Z,101615.47
2022-08-07T22:54:06.685Z,101613.72
2022-08-07T22:56:51.904Z,101619.75
2022-08-07T22:59:42.772Z,101622.50
2022-08-07T23:02:34.603Z,101620.88
2022-08-07T23:06:10.127Z,101625.34
2022-08-07T23:08:46.769Z,101623.81
2022-08-07T23:11:35.259Z,101627.38
2022-08-07T23:14:16.141Z,101626.50
2022-08-07T23:17:03.028Z,101624.81
2022-08-07T23:20:09.657Z,101624.13
2022-08-07T23:22:41.968Z,101625.84
2022-08-07T23:25:28.418Z,101623.34
2022-08-07T23:28:22.237Z,101625.19
2022-08-07T23:31:18.515Z,101624.53
2022-08-07T23:34:38.324Z,101633.88
2022-08-07T23:37:29.678Z,101624.38
2022-08-07T23:40:07.374Z,101626.22
2022-08-07T23:42:49.642Z,101621.56
2022-08-07T23:46:01.396Z,101625.06
2022-08-07T23:48:53.444Z,101626.84
2022-08-07T23:53:00.428Z,101632.25
2022-08-07T23:54:44.202Z,101623.44
2022-08-07T23:57:45.996Z,101624.44
